sensor_id;sensor_type;location;lat;lon;timestamp;temperature;humidity
38239;DHT22;24035;48.900;9.188;2022-10-15T00:01:16;14.30;1.00
38239;DHT22;24035;48.900;9.188;2022-10-15T00:03:44;14.40;1.00
38239;DHT22;24035;48.900;9.188;2022-10-15T00:06:12;14.40;1.00
38239;DHT22;24035;48.900;9.188;2022-10-15T00:08:38;14.40;1.00
38239;DHT22;24035;48.900;9.188;2022-10-15T00:11:14;14.40;1.00
38239;DHT22;24035;48.900;9.188;2022-10-15T00:13:41;14.40;1.00
38239;DHT22;24035;48.900;9.188;2022-10-15T00:16:13;14.40;1.00
38239;DHT22;24035;48.900;9.188;2022-10-15T00:18:40;14.50;1.00
38239;DHT22;24035;48.900;9.188;2022-10-15T00:21:07;14.40;1.00
38239;DHT22;24035;48.900;9.188;2022-10-15T00:23:33;14.50;1.00
38239;DHT22;24035;48.900;9.188;2022-10-15T00:26:13;14.50;1.00
38239;DHT22;24035;48.900;9.188;2022-10-15T00:28:39;14.50;1.00
38239;DHT22;24035;48.900;9.188;2022-10-15T00:31:16;14.50;1.00
38239;DHT22;24035;48.900;9.188;2022-10-15T00:33:43;14.60;1.00
38239;DHT22;24035;48.900;9.188;2022-10-15T00:36:15;14.60;1.00
38239;DHT22;24035;48.900;9.188;2022-10-15T00:38:42;14.60;1.00
38239;DHT22;24035;48.900;9.188;2022-10-15T00:41:15;14.60;1.00
38239;DHT22;24035;48.900;9.188;2022-10-15T00:48:56;14.60;1.00
38239;DHT22;24035;48.900;9.188;2022-10-15T00:51:25;14.60;1.00
38239;DHT22;24035;48.900;9.188;2022-10-15T00:53:52;14.60;1.00
38239;DHT22;24035;48.900;9.188;2022-10-15T00:56:19;14.70;1.00
38239;DHT22;24035;48.900;9.188;2022-10-15T00:58:51;14.70;1.00
38239;DHT22;24035;48.900;9.188;2022-10-15T01:01:17;14.70;1.00
38239;DHT22;24035;48.900;9.188;2022-10-15T01:03:43;14.70;99.90
38239;DHT22;24035;48.900;9.188;2022-10-15T01:06:08;14.70;99.90
38239;DHT22;24035;48.900;9.188;2022-10-15T01:08:34;14.70;1.00
38239;DHT22;24035;48.900;9.188;2022-10-15T01:16:29;14.70;99.90
38239;DHT22;24035;48.900;9.188;2022-10-15T01:19:09;14.70;99.90
38239;DHT22;24035;48.900;9.188;2022-10-15T01:21:52;14.80;1.00
38239;DHT22;24035;48.900;9.188;2022-10-15T01:30:01;14.80;1.00
38239;DHT22;24035;48.900;9.188;2022-10-15T01:32:41;14.80;1.00
38239;DHT22;24035;48.900;9.188;2022-10-15T01:35:20;14.80;1.00
38239;DHT22;24035;48.900;9.188;2022-10-15T01:37:51;14.80;1.00
38239;DHT22;24035;48.900;9.188;2022-10-15T01:40:32;14.90;1.00
38239;DHT22;24035;48.900;9.188;2022-10-15T01:43:01;14.80;1.00
38239;DHT22;24035;48.900;9.188;2022-10-15T01:45:34;14.90;1.00
38239;DHT22;24035;48.900;9.188;2022-10-15T01:48:12;14.90;1.00
38239;DHT22;24035;48.900;9.188;2022-10-15T01:50:43;14.90;1.00
38239;DHT22;24035;48.900;9.188;2022-10-15T01:53:13;15.00;1.00
38239;DHT22;24035;48.900;9.188;2022-10-15T01:55:41;15.00;1.00
38239;DHT22;24035;48.900;9.188;2022-10-15T01:58:09;15.00;1.00
38239;DHT22;24035;48.900;9.188;2022-10-15T02:00:36;15.00;99.90
38239;DHT22;24035;48.900;9.188;2022-10-15T02:03:03;15.00;99.90
38239;DHT22;24035;48.900;9.188;2022-10-15T02:05:32;15.00;99.90
38239;DHT22;24035;48.900;9.188;2022-10-15T02:08:19;15.00;1.00
38239;DHT22;24035;48.900;9.188;2022-10-15T02:10:53;15.00;1.00
38239;DHT22;24035;48.900;9.188;2022-10-15T02:13:30;15.00;1.00
38239;DHT22;24035;48.900;9.188;2022-10-15T02:19:01;15.00;1.00
38239;DHT22;24035;48.900;9.188;2022-10-15T02:21:31;15.00;1.00
38239;DHT22;24035;48.900;9.188;2022-10-15T02:30:43;15.00;1.00
38239;DHT22;24035;48.900;9.188;2022-10-15T02:33:10;15.10;1.00
38239;DHT22;24035;48.900;9.188;2022-10-15T02:35:37;15.00;1.00
38239;DHT22;24035;48.900;9.188;2022-10-15T02:38:06;15.10;1.00
38239;DHT22;24035;48.900;9.188;2022-10-15T02:40:33;15.00;1.00
38239;DHT22;24035;48.900;9.188;2022-10-15T02:43:03;15.00;1.00
38239;DHT22;24035;48.900;9.188;2022-10-15T02:45:29;15.00;1.00
38239;DHT22;24035;48.900;9.188;2022-10-15T02:47:55;15.00;1.00
38239;DHT22;24035;48.900;9.188;2022-10-15T02:50:20;15.00;1.00
38239;DHT22;24035;48.900;9.188;2022-10-15T02:52:46;15.00;1.00
38239;DHT22;24035;48.900;9.188;2022-10-15T02:55:11;15.00;1.00
38239;DHT22;24035;48.900;9.188;2022-10-15T02:57:37;15.00;1.00
38239;DHT22;24035;48.900;9.188;2022-10-15T03:00:04;15.00;1.00
38239;DHT22;24035;48.900;9.188;2022-10-15T03:02:29;15.00;1.00
38239;DHT22;24035;48.900;9.188;2022-10-15T03:04:55;15.10;1.00
38239;DHT22;24035;48.900;9.188;2022-10-15T03:07:20;15.10;1.00
38239;DHT22;24035;48.900;9.188;2022-10-15T03:09:46;15.00;1.00
38239;DHT22;24035;48.900;9.188;2022-10-15T03:12:12;15.10;1.00
38239;DHT22;24035;48.900;9.188;2022-10-15T03:14:37;15.10;1.00
38239;DHT22;24035;48.900;9.188;2022-10-15T03:17:03;15.10;1.00
38239;DHT22;24035;48.900;9.188;2022-10-15T03:19:29;15.10;1.00
38239;DHT22;24035;48.900;9.188;2022-10-15T03:21:54;15.10;1.00
38239;DHT22;24035;48.900;9.188;2022-10-15T03:24:20;15.10;1.00
38239;DHT22;24035;48.900;9.188;2022-10-15T03:26:45;15.10;1.00
38239;DHT22;24035;48.900;9.188;2022-10-15T03:29:11;15.10;1.00
38239;DHT22;24035;48.900;9.188;2022-10-15T03:31:37;15.10;1.00
38239;DHT22;24035;48.900;9.188;2022-10-15T03:34:02;15.10;1.00
38239;DHT22;24035;48.900;9.188;2022-10-15T03:36:28;15.10;1.00
38239;DHT22;24035;48.900;9.188;2022-10-15T03:38:53;15.10;1.00
38239;DHT22;24035;48.900;9.188;2022-10-15T03:41:19;15.10;1.00
38239;DHT22;24035;48.900;9.188;2022-10-15T03:43:45;15.10;1.00
38239;DHT22;24035;48.900;9.188;2022-10-15T03:46:10;15.00;1.00
38239;DHT22;24035;48.900;9.188;2022-10-15T03:48:37;15.10;1.00
38239;DHT22;24035;48.900;9.188;2022-10-15T03:51:03;15.20;1.00
38239;DHT22;24035;48.900;9.188;2022-10-15T03:53:28;15.10;1.00
38239;DHT22;24035;48.900;9.188;2022-10-15T03:55:54;15.10;1.00
38239;DHT22;24035;48.900;9.188;2022-10-15T03:58:20;15.10;1.00
38239;DHT22;24035;48.900;9.188;2022-10-15T04:00:45;15.10;1.00
38239;DHT22;24035;48.900;9.188;2022-10-15T04:03:11;15.20;1.00
38239;DHT22;24035;48.900;9.188;2022-10-15T04:05:38;15.20;1.00
38239;DHT22;24035;48.900;9.188;2022-10-15T04:08:04;15.20;1.00
38239;DHT22;24035;48.900;9.188;2022-10-15T04:10:29;15.20;1.00
38239;DHT22;24035;48.900;9.188;2022-10-15T04:12:55;15.30;1.00
38239;DHT22;24035;48.900;9.188;2022-10-15T04:15:21;15.20;1.00
38239;DHT22;24035;48.900;9.188;2022-10-15T04:17:46;15.30;1.00
38239;DHT22;24035;48.900;9.188;2022-10-15T04:20:12;15.30;1.00
38239;DHT22;24035;48.900;9.188;2022-10-15T04:22:38;15.30;1.00
38239;DHT22;24035;48.900;9.188;2022-10-15T04:25:04;15.30;1.00
38239;DHT22;24035;48.900;9.188;2022-10-15T04:27:29;15.30;1.00
38239;DHT22;24035;48.900;9.188;2022-10-15T04:29:55;15.20;1.00
38239;DHT22;24035;48.900;9.188;2022-10-15T04:32:21;15.20;1.00
38239;DHT22;24035;48.900;9.188;2022-10-15T04:34:46;15.30;1.00
38239;DHT22;24035;48.900;9.188;2022-10-15T04:37:12;15.30;1.00
38239;DHT22;24035;48.900;9.188;2022-10-15T04:39:38;15.30;1.00
38239;DHT22;24035;48.900;9.188;2022-10-15T04:42:04;15.30;1.00
38239;DHT22;24035;48.900;9.188;2022-10-15T04:44:29;15.20;1.00
38239;DHT22;24035;48.900;9.188;2022-10-15T04:46:55;15.20;1.00
38239;DHT22;24035;48.900;9.188;2022-10-15T04:49:21;15.10;1.00
38239;DHT22;24035;48.900;9.188;2022-10-15T04:51:47;15.20;1.00
38239;DHT22;24035;48.900;9.188;2022-10-15T04:54:12;15.10;1.00
38239;DHT22;24035;48.900;9.188;2022-10-15T04:56:38;15.10;1.00
38239;DHT22;24035;48.900;9.188;2022-10-15T04:59:06;15.10;1.00
38239;DHT22;24035;48.900;9.188;2022-10-15T05:01:33;15.20;1.00
38239;DHT22;24035;48.900;9.188;2022-10-15T05:03:58;15.20;1.00
38239;DHT22;24035;48.900;9.188;2022-10-15T05:06:24;15.20;1.00
38239;DHT22;24035;48.900;9.188;2022-10-15T05:08:50;15.20;1.00
38239;DHT22;24035;48.900;9.188;2022-10-15T05:13:42;15.20;1.00
38239;DHT22;24035;48.900;9.188;2022-10-15T05:16:16;15.10;1.00
38239;DHT22;24035;48.900;9.188;2022-10-15T05:18:44;15.20;1.00
38239;DHT22;24035;48.900;9.188;2022-10-15T05:21:11;15.10;1.00
38239;DHT22;24035;48.900;9.188;2022-10-15T05:23:37;15.20;1.00
38239;DHT22;24035;48.900;9.188;2022-10-15T05:26:06;15.20;1.00
38239;DHT22;24035;48.900;9.188;2022-10-15T05:28:33;15.20;1.00
38239;DHT22;24035;48.900;9.188;2022-10-15T05:31:13;15.20;1.00
38239;DHT22;24035;48.900;9.188;2022-10-15T05:33:40;15.20;1.00
38239;DHT22;24035;48.900;9.188;2022-10-15T05:36:10;15.20;1.00
38239;DHT22;24035;48.900;9.188;2022-10-15T05:38:37;15.20;1.00
38239;DHT22;24035;48.900;9.188;2022-10-15T05:41:03;15.30;1.00
38239;DHT22;24035;48.900;9.188;2022-10-15T05:43:28;15.20;1.00
38239;DHT22;24035;48.900;9.188;2022-10-15T05:45:54;15.20;1.00
38239;DHT22;24035;48.900;9.188;2022-10-15T05:48:20;15.20;1.00
38239;DHT22;24035;48.900;9.188;2022-10-15T05:50:46;15.10;1.00
38239;DHT22;24035;48.900;9.188;2022-10-15T05:53:12;15.10;1.00
38239;DHT22;24035;48.900;9.188;2022-10-15T05:55:37;15.10;1.00
38239;DHT22;24035;48.900;9.188;2022-10-15T05:58:04;15.10;1.00
38239;DHT22;24035;48.900;9.188;2022-10-15T06:00:30;15.10;1.00
38239;DHT22;24035;48.900;9.188;2022-10-15T06:02:56;15.10;1.00
38239;DHT22;24035;48.900;9.188;2022-10-15T06:05:23;15.10;1.00
38239;DHT22;24035;48.900;9.188;2022-10-15T06:07:49;15.10;1.00
38239;DHT22;24035;48.900;9.188;2022-10-15T06:10:15;15.10;1.00
38239;DHT22;24035;48.900;9.188;2022-10-15T06:12:41;15.10;1.00
38239;DHT22;24035;48.900;9.188;2022-10-15T06:15:07;15.10;1.00
38239;DHT22;24035;48.900;9.188;2022-10-15T06:17:33;15.20;1.00
38239;DHT22;24035;48.900;9.188;2022-10-15T06:19:59;15.20;1.00
38239;DHT22;24035;48.900;9.188;2022-10-15T06:22:25;15.20;1.00
38239;DHT22;24035;48.900;9.188;2022-10-15T06:24:50;15.30;1.00
38239;DHT22;24035;48.900;9.188;2022-10-15T06:27:17;15.20;1.00
38239;DHT22;24035;48.900;9.188;2022-10-15T06:29:43;15.20;1.00
38239;DHT22;24035;48.900;9.188;2022-10-15T06:32:10;15.20;1.00
38239;DHT22;24035;48.900;9.188;2022-10-15T06:34:35;15.20;1.00
38239;DHT22;24035;48.900;9.188;2022-10-15T06:37:01;15.20;1.00
38239;DHT22;24035;48.900;9.188;2022-10-15T06:39:27;15.30;1.00
38239;DHT22;24035;48.900;9.188;2022-10-15T06:41:52;15.40;1.00
38239;DHT22;24035;48.900;9.188;2022-10-15T06:44:18;15.40;1.00
38239;DHT22;24035;48.900;9.188;2022-10-15T06:46:44;15.40;1.00
38239;DHT22;24035;48.900;9.188;2022-10-15T06:49:09;15.30;1.00
38239;DHT22;24035;48.900;9.188;2022-10-15T06:51:35;15.40;1.00
38239;DHT22;24035;48.900;9.188;2022-10-15T06:54:02;15.50;1.00
38239;DHT22;24035;48.900;9.188;2022-10-15T06:56:28;15.60;1.00
38239;DHT22;24035;48.900;9.188;2022-10-15T06:58:54;15.60;1.00
38239;DHT22;24035;48.900;9.188;2022-10-15T07:01:19;15.70;1.00
38239;DHT22;24035;48.900;9.188;2022-10-15T07:03:48;15.70;1.00
38239;DHT22;24035;48.900;9.188;2022-10-15T07:06:14;15.70;1.00
38239;DHT22;24035;48.900;9.188;2022-10-15T07:08:40;15.80;1.00
38239;DHT22;24035;48.900;9.188;2022-10-15T07:11:08;15.90;1.00
38239;DHT22;24035;48.900;9.188;2022-10-15T07:13:34;16.00;1.00
38239;DHT22;24035;48.900;9.188;2022-10-15T07:16:08;16.00;1.00
38239;DHT22;24035;48.900;9.188;2022-10-15T07:18:34;16.10;1.00
38239;DHT22;24035;48.900;9.188;2022-10-15T07:21:00;16.10;1.00
38239;DHT22;24035;48.900;9.188;2022-10-15T07:23:26;16.10;1.00
38239;DHT22;24035;48.900;9.188;2022-10-15T07:25:52;16.30;1.00
38239;DHT22;24035;48.900;9.188;2022-10-15T07:28:17;16.30;1.00
38239;DHT22;24035;48.900;9.188;2022-10-15T07:30:43;16.50;1.00
38239;DHT22;24035;48.900;9.188;2022-10-15T07:33:09;16.60;1.00
38239;DHT22;24035;48.900;9.188;2022-10-15T07:35:36;16.80;1.00
38239;DHT22;24035;48.900;9.188;2022-10-15T07:38:02;17.00;1.00
38239;DHT22;24035;48.900;9.188;2022-10-15T07:40:28;17.00;1.00
38239;DHT22;24035;48.900;9.188;2022-10-15T07:42:55;16.90;1.00
38239;DHT22;24035;48.900;9.188;2022-10-15T07:45:22;16.90;99.90
38239;DHT22;24035;48.900;9.188;2022-10-15T07:47:48;17.00;1.00
38239;DHT22;24035;48.900;9.188;2022-10-15T07:50:14;17.00;99.90
38239;DHT22;24035;48.900;9.188;2022-10-15T07:52:40;17.10;61.00
38239;DHT22;24035;48.900;9.188;2022-10-15T07:55:06;17.10;1.00
38239;DHT22;24035;48.900;9.188;2022-10-15T07:57:32;17.10;1.00
38239;DHT22;24035;48.900;9.188;2022-10-15T07:59:57;17.10;99.90
38239;DHT22;24035;48.900;9.188;2022-10-15T08:02:23;17.10;99.90
38239;DHT22;24035;48.900;9.188;2022-10-15T08:04:49;17.00;99.90
38239;DHT22;24035;48.900;9.188;2022-10-15T08:07:15;17.00;99.90
38239;DHT22;24035;48.900;9.188;2022-10-15T08:09:41;16.90;1.00
38239;DHT22;24035;48.900;9.188;2022-10-15T08:12:06;16.90;1.00
38239;DHT22;24035;48.900;9.188;2022-10-15T08:14:36;16.70;56.00
38239;DHT22;24035;48.900;9.188;2022-10-15T08:17:05;16.60;76.20
38239;DHT22;24035;48.900;9.188;2022-10-15T08:19:31;16.70;1.00
38239;DHT22;24035;48.900;9.188;2022-10-15T08:21:57;16.70;99.90
38239;DHT22;24035;48.900;9.188;2022-10-15T08:24:23;16.60;99.90
38239;DHT22;24035;48.900;9.188;2022-10-15T08:26:49;16.60;99.90
38239;DHT22;24035;48.900;9.188;2022-10-15T08:29:14;16.50;99.90
38239;DHT22;24035;48.900;9.188;2022-10-15T08:31:41;16.40;1.00
38239;DHT22;24035;48.900;9.188;2022-10-15T08:34:07;16.20;1.00
38239;DHT22;24035;48.900;9.188;2022-10-15T08:36:32;16.30;1.00
38239;DHT22;24035;48.900;9.188;2022-10-15T08:38:58;16.40;1.00
38239;DHT22;24035;48.900;9.188;2022-10-15T08:43:59;16.40;1.00
38239;DHT22;24035;48.900;9.188;2022-10-15T08:48:57;16.50;1.00
38239;DHT22;24035;48.900;9.188;2022-10-15T08:51:33;16.60;1.00
38239;DHT22;24035;48.900;9.188;2022-10-15T08:54:03;16.70;1.00
38239;DHT22;24035;48.900;9.188;2022-10-15T09:04:37;16.70;1.00
38239;DHT22;24035;48.900;9.188;2022-10-15T09:07:14;16.70;1.00
38239;DHT22;24035;48.900;9.188;2022-10-15T09:10:17;16.60;1.00
38239;DHT22;24035;48.900;9.188;2022-10-15T09:13:13;16.70;1.00
38239;DHT22;24035;48.900;9.188;2022-10-15T09:16:02;16.80;1.00
38239;DHT22;24035;48.900;9.188;2022-10-15T09:18:34;16.90;1.00
38239;DHT22;24035;48.900;9.188;2022-10-15T09:21:01;16.80;1.00
38239;DHT22;24035;48.900;9.188;2022-10-15T09:23:29;16.70;99.90
38239;DHT22;24035;48.900;9.188;2022-10-15T09:28:45;16.70;99.90
38239;DHT22;24035;48.900;9.188;2022-10-15T09:31:14;16.80;1.00
38239;DHT22;24035;48.900;9.188;2022-10-15T09:36:34;17.00;1.00
38239;DHT22;24035;48.900;9.188;2022-10-15T09:44:46;17.50;99.90
38239;DHT22;24035;48.900;9.188;2022-10-15T09:47:16;17.60;99.90
38239;DHT22;24035;48.900;9.188;2022-10-15T09:49:42;17.80;99.90
38239;DHT22;24035;48.900;9.188;2022-10-15T09:55:00;18.30;1.00
38239;DHT22;24035;48.900;9.188;2022-10-15T09:57:30;18.30;99.90
38239;DHT22;24035;48.900;9.188;2022-10-15T09:59:59;18.50;99.90
38239;DHT22;24035;48.900;9.188;2022-10-15T10:02:27;18.60;1.00
38239;DHT22;24035;48.900;9.188;2022-10-15T10:04:53;18.50;1.00
38239;DHT22;24035;48.900;9.188;2022-10-15T10:07:35;18.50;1.00
38239;DHT22;24035;48.900;9.188;2022-10-15T10:10:20;18.40;1.00
38239;DHT22;24035;48.900;9.188;2022-10-15T10:12:47;18.40;99.90
38239;DHT22;24035;48.900;9.188;2022-10-15T10:15:35;18.40;99.90
38239;DHT22;24035;48.900;9.188;2022-10-15T10:18:02;18.60;1.00
38239;DHT22;24035;48.900;9.188;2022-10-15T10:20:32;18.80;99.90
38239;DHT22;24035;48.900;9.188;2022-10-15T10:23:08;18.80;51.40
38239;DHT22;24035;48.900;9.188;2022-10-15T10:25:45;18.70;99.90
38239;DHT22;24035;48.900;9.188;2022-10-15T10:30:42;18.50;99.90
38239;DHT22;24035;48.900;9.188;2022-10-15T10:33:14;18.60;1.00
38239;DHT22;24035;48.900;9.188;2022-10-15T10:35:47;18.60;99.90
38239;DHT22;24035;48.900;9.188;2022-10-15T10:38:35;18.70;99.90
38239;DHT22;24035;48.900;9.188;2022-10-15T10:41:05;19.00;1.00
38239;DHT22;24035;48.900;9.188;2022-10-15T10:43:37;19.20;24.90
38239;DHT22;24035;48.900;9.188;2022-10-15T10:48:43;19.40;1.00
38239;DHT22;24035;48.900;9.188;2022-10-15T10:51:11;19.50;1.00
38239;DHT22;24035;48.900;9.188;2022-10-15T10:53:59;19.70;1.00
38239;DHT22;24035;48.900;9.188;2022-10-15T10:56:39;19.70;99.90
38239;DHT22;24035;48.900;9.188;2022-10-15T10:59:24;19.40;99.90
38239;DHT22;24035;48.900;9.188;2022-10-15T11:01:51;19.50;99.90
38239;DHT22;24035;48.900;9.188;2022-10-15T11:04:29;19.60;1.00
38239;DHT22;24035;48.900;9.188;2022-10-15T11:07:26;19.60;1.00
38239;DHT22;24035;48.900;9.188;2022-10-15T11:18:15;20.00;99.90
38239;DHT22;24035;48.900;9.188;2022-10-15T11:32:33;19.80;99.90
38239;DHT22;24035;48.900;9.188;2022-10-15T11:40:40;20.80;1.00
38239;DHT22;24035;48.900;9.188;2022-10-15T11:46:11;20.70;1.00
38239;DHT22;24035;48.900;9.188;2022-10-15T11:51:38;21.30;1.00
38239;DHT22;24035;48.900;9.188;2022-10-15T11:54:34;21.50;1.00
38239;DHT22;24035;48.900;9.188;2022-10-15T11:57:02;21.50;1.00
38239;DHT22;24035;48.900;9.188;2022-10-15T12:02:10;21.10;1.00
38239;DHT22;24035;48.900;9.188;2022-10-15T12:04:56;21.00;1.00
38239;DHT22;24035;48.900;9.188;2022-10-15T12:07:47;20.90;1.00
38239;DHT22;24035;48.900;9.188;2022-10-15T12:15:44;20.10;1.00
38239;DHT22;24035;48.900;9.188;2022-10-15T12:18:14;19.80;1.00
38239;DHT22;24035;48.900;9.188;2022-10-15T12:20:44;19.60;1.00
38239;DHT22;24035;48.900;9.188;2022-10-15T12:28:50;20.00;1.00
38239;DHT22;24035;48.900;9.188;2022-10-15T12:31:17;19.90;1.00
38239;DHT22;24035;48.900;9.188;2022-10-15T12:33:55;19.60;1.00
38239;DHT22;24035;48.900;9.188;2022-10-15T12:39:02;18.90;1.00
38239;DHT22;24035;48.900;9.188;2022-10-15T12:41:47;18.70;99.90
38239;DHT22;24035;48.900;9.188;2022-10-15T12:44:21;18.50;1.00
38239;DHT22;24035;48.900;9.188;2022-10-15T12:46:49;18.30;1.00
38239;DHT22;24035;48.900;9.188;2022-10-15T12:52:00;18.20;1.00
38239;DHT22;24035;48.900;9.188;2022-10-15T12:54:39;18.20;1.00
38239;DHT22;24035;48.900;9.188;2022-10-15T12:59:58;18.40;1.00
38239;DHT22;24035;48.900;9.188;2022-10-15T13:02:39;18.60;1.00
38239;DHT22;24035;48.900;9.188;2022-10-15T13:05:11;18.80;1.00
38239;DHT22;24035;48.900;9.188;2022-10-15T13:07:48;19.10;99.90
38239;DHT22;24035;48.900;9.188;2022-10-15T13:10:20;19.00;99.90
38239;DHT22;24035;48.900;9.188;2022-10-15T13:12:53;19.10;99.90
38239;DHT22;24035;48.900;9.188;2022-10-15T13:15:21;19.20;99.90
38239;DHT22;24035;48.900;9.188;2022-10-15T13:17:48;19.30;99.90
38239;DHT22;24035;48.900;9.188;2022-10-15T13:20:33;19.30;99.90
38239;DHT22;24035;48.900;9.188;2022-10-15T13:25:47;19.10;99.90
38239;DHT22;24035;48.900;9.188;2022-10-15T13:28:47;19.10;1.00
38239;DHT22;24035;48.900;9.188;2022-10-15T13:33:50;19.30;99.90
38239;DHT22;24035;48.900;9.188;2022-10-15T13:36:25;19.30;99.90
38239;DHT22;24035;48.900;9.188;2022-10-15T13:38:57;19.30;99.90
38239;DHT22;24035;48.900;9.188;2022-10-15T13:41:28;19.20;99.90
38239;DHT22;24035;48.900;9.188;2022-10-15T13:43:55;19.00;99.90
38239;DHT22;24035;48.900;9.188;2022-10-15T13:46:26;19.00;99.90
38239;DHT22;24035;48.900;9.188;2022-10-15T13:49:08;18.80;99.90
38239;DHT22;24035;48.900;9.188;2022-10-15T13:51:39;18.80;99.90
38239;DHT22;24035;48.900;9.188;2022-10-15T13:54:14;18.80;1.00
38239;DHT22;24035;48.900;9.188;2022-10-15T13:56:53;18.80;1.00
38239;DHT22;24035;48.900;9.188;2022-10-15T13:59:21;18.70;1.00
38239;DHT22;24035;48.900;9.188;2022-10-15T14:01:52;18.60;1.00
38239;DHT22;24035;48.900;9.188;2022-10-15T14:04:23;18.70;1.00
38239;DHT22;24035;48.900;9.188;2022-10-15T14:09:36;18.70;1.00
38239;DHT22;24035;48.900;9.188;2022-10-15T14:12:06;18.70;1.00
38239;DHT22;24035;48.900;9.188;2022-10-15T14:14:35;18.70;1.00
38239;DHT22;24035;48.900;9.188;2022-10-15T14:17:06;18.70;1.00
38239;DHT22;24035;48.900;9.188;2022-10-15T14:19:36;18.70;39.00
38239;DHT22;24035;48.900;9.188;2022-10-15T14:22:03;18.50;99.90
38239;DHT22;24035;48.900;9.188;2022-10-15T14:24:36;18.20;99.90
38239;DHT22;24035;48.900;9.188;2022-10-15T14:27:12;17.90;1.00
38239;DHT22;24035;48.900;9.188;2022-10-15T14:29:46;17.80;99.90
38239;DHT22;24035;48.900;9.188;2022-10-15T14:32:44;17.60;1.00
38239;DHT22;24035;48.900;9.188;2022-10-15T14:35:31;17.40;63.70
38239;DHT22;24035;48.900;9.188;2022-10-15T14:40:36;17.20;1.00
38239;DHT22;24035;48.900;9.188;2022-10-15T14:43:14;17.20;99.90
38239;DHT22;24035;48.900;9.188;2022-10-15T14:48:10;17.40;99.90
38239;DHT22;24035;48.900;9.188;2022-10-15T14:50:42;17.40;99.90
38239;DHT22;24035;48.900;9.188;2022-10-15T14:53:15;17.50;1.00
38239;DHT22;24035;48.900;9.188;2022-10-15T14:55:46;17.70;99.90
38239;DHT22;24035;48.900;9.188;2022-10-15T14:58:19;17.80;1.00
38239;DHT22;24035;48.900;9.188;2022-10-15T15:00:47;17.90;99.90
38239;DHT22;24035;48.900;9.188;2022-10-15T15:03:18;18.00;90.30
38239;DHT22;24035;48.900;9.188;2022-10-15T15:08:13;18.20;1.00
38239;DHT22;24035;48.900;9.188;2022-10-15T15:10:39;18.40;1.00
38239;DHT22;24035;48.900;9.188;2022-10-15T15:13:05;18.40;99.90
38239;DHT22;24035;48.900;9.188;2022-10-15T15:15:31;18.40;99.90
38239;DHT22;24035;48.900;9.188;2022-10-15T15:17:57;18.50;90.00
38239;DHT22;24035;48.900;9.188;2022-10-15T15:20:23;18.40;1.00
38239;DHT22;24035;48.900;9.188;2022-10-15T15:22:53;18.30;1.00
38239;DHT22;24035;48.900;9.188;2022-10-15T15:27:46;18.20;1.00
38239;DHT22;24035;48.900;9.188;2022-10-15T15:30:17;18.20;1.00
38239;DHT22;24035;48.900;9.188;2022-10-15T15:32:43;18.20;1.00
38239;DHT22;24035;48.900;9.188;2022-10-15T15:35:19;18.30;1.00
38239;DHT22;24035;48.900;9.188;2022-10-15T15:37:45;18.30;1.00
38239;DHT22;24035;48.900;9.188;2022-10-15T15:40:11;18.40;1.00
38239;DHT22;24035;48.900;9.188;2022-10-15T15:42:37;18.50;1.00
38239;DHT22;24035;48.900;9.188;2022-10-15T15:45:03;18.40;99.90
38239;DHT22;24035;48.900;9.188;2022-10-15T15:47:29;18.40;99.90
38239;DHT22;24035;48.900;9.188;2022-10-15T15:49:54;18.40;99.90
38239;DHT22;24035;48.900;9.188;2022-10-15T15:52:20;18.40;73.40
38239;DHT22;24035;48.900;9.188;2022-10-15T15:54:46;18.30;99.90
38239;DHT22;24035;48.900;9.188;2022-10-15T15:57:12;18.30;99.90
38239;DHT22;24035;48.900;9.188;2022-10-15T15:59:38;18.20;99.90
38239;DHT22;24035;48.900;9.188;2022-10-15T16:02:03;18.10;1.00
38239;DHT22;24035;48.900;9.188;2022-10-15T16:04:29;18.00;99.90
38239;DHT22;24035;48.900;9.188;2022-10-15T16:06:55;17.90;1.00
38239;DHT22;24035;48.900;9.188;2022-10-15T16:09:21;17.80;1.00
38239;DHT22;24035;48.900;9.188;2022-10-15T16:11:48;17.70;1.00
38239;DHT22;24035;48.900;9.188;2022-10-15T16:14:14;17.70;1.00
38239;DHT22;24035;48.900;9.188;2022-10-15T16:16:40;17.60;1.00
38239;DHT22;24035;48.900;9.188;2022-10-15T16:19:06;17.50;99.90
38239;DHT22;24035;48.900;9.188;2022-10-15T16:21:32;17.40;1.00
38239;DHT22;24035;48.900;9.188;2022-10-15T16:23:58;17.30;99.90
38239;DHT22;24035;48.900;9.188;2022-10-15T16:26:24;17.20;99.90
38239;DHT22;24035;48.900;9.188;2022-10-15T16:28:50;17.10;7.40
38239;DHT22;24035;48.900;9.188;2022-10-15T16:31:34;17.00;1.00
38239;DHT22;24035;48.900;9.188;2022-10-15T16:34:04;16.90;1.00
38239;DHT22;24035;48.900;9.188;2022-10-15T16:36:30;16.70;99.90
38239;DHT22;24035;48.900;9.188;2022-10-15T16:38:56;16.70;99.90
38239;DHT22;24035;48.900;9.188;2022-10-15T16:41:21;16.60;1.00
38239;DHT22;24035;48.900;9.188;2022-10-15T16:43:48;16.60;99.90
38239;DHT22;24035;48.900;9.188;2022-10-15T16:46:15;16.60;99.90
38239;DHT22;24035;48.900;9.188;2022-10-15T16:48:41;16.50;99.90
38239;DHT22;24035;48.900;9.188;2022-10-15T16:51:10;16.50;1.00
38239;DHT22;24035;48.900;9.188;2022-10-15T16:53:37;16.50;1.00
38239;DHT22;24035;48.900;9.188;2022-10-15T16:56:05;16.50;1.00
38239;DHT22;24035;48.900;9.188;2022-10-15T16:58:31;16.50;1.00
38239;DHT22;24035;48.900;9.188;2022-10-15T17:01:00;16.50;1.00
38239;DHT22;24035;48.900;9.188;2022-10-15T17:03:27;16.50;1.00
38239;DHT22;24035;48.900;9.188;2022-10-15T17:06:03;16.50;1.00
38239;DHT22;24035;48.900;9.188;2022-10-15T17:11:13;16.50;99.90
38239;DHT22;24035;48.900;9.188;2022-10-15T17:13:39;16.60;99.90
38239;DHT22;24035;48.900;9.188;2022-10-15T17:16:10;16.60;99.90
38239;DHT22;24035;48.900;9.188;2022-10-15T17:18:37;16.70;94.70
38239;DHT22;24035;48.900;9.188;2022-10-15T17:21:02;16.70;19.50
38239;DHT22;24035;48.900;9.188;2022-10-15T17:23:28;16.70;1.00
38239;DHT22;24035;48.900;9.188;2022-10-15T17:25:55;16.70;1.00
38239;DHT22;24035;48.900;9.188;2022-10-15T17:28:20;16.80;1.00
38239;DHT22;24035;48.900;9.188;2022-10-15T17:30:46;16.70;40.30
38239;DHT22;24035;48.900;9.188;2022-10-15T17:33:12;16.70;99.90
38239;DHT22;24035;48.900;9.188;2022-10-15T17:35:37;16.70;99.90
38239;DHT22;24035;48.900;9.188;2022-10-15T17:38:03;16.70;1.00
38239;DHT22;24035;48.900;9.188;2022-10-15T17:40:29;16.60;1.00
38239;DHT22;24035;48.900;9.188;2022-10-15T17:42:55;16.40;99.90
38239;DHT22;24035;48.900;9.188;2022-10-15T17:45:22;16.30;1.00
38239;DHT22;24035;48.900;9.188;2022-10-15T17:47:48;16.20;1.00
38239;DHT22;24035;48.900;9.188;2022-10-15T17:50:14;16.10;1.00
38239;DHT22;24035;48.900;9.188;2022-10-15T17:52:40;15.90;99.90
38239;DHT22;24035;48.900;9.188;2022-10-15T17:55:06;15.80;1.00
38239;DHT22;24035;48.900;9.188;2022-10-15T17:57:32;15.70;1.00
38239;DHT22;24035;48.900;9.188;2022-10-15T17:59:57;15.80;1.00
38239;DHT22;24035;48.900;9.188;2022-10-15T18:02:23;15.60;1.00
38239;DHT22;24035;48.900;9.188;2022-10-15T18:04:49;15.70;1.00
38239;DHT22;24035;48.900;9.188;2022-10-15T18:07:15;15.70;99.90
38239;DHT22;24035;48.900;9.188;2022-10-15T18:09:44;15.70;1.00